Terminal Aerodrome Forecast
Issued by NWS

Home | Current Version | Previous Version | Text Only | Print | Product List | Glossary On
Versions: 1 2 3 4 5 6 7 8 9 10 11 12 13 14 15 16 17 18 19 20 21 22 23
000
FTPA31 PHFO 221733
TAFHTO
TAF
PHTO 221733Z 2218/2318 VRB06KT 6SM -RA FEW005 SCT010 BKN025
      TEMPO 2218/2222 3SM SHRA SCT005 BKN010 OVC025
     FM222200 08008KT P6SM VCSH SCT025 BKN035
     FM230600 24005KT P6SM VCSH SCT025 BKN050=

USA.gov is the U.S. government's official web portal to all federal, state and local government web resources and services.